Map

Track Data

SID SEASON NUMBER BASIN SUBBASIN NAME ISO_TIME NATURE LAT LON WMO_WIND WMO_PRES WMO_AGENCY TRACK_TYPE DIST2LAND LANDFALL IFLAG USA_AGENCY USA_ATCF_ID USA_LAT USA_LON USA_RECORD USA_STATUS USA_WIND USA_PRES USA_SSHS USA_R34_NE USA_R34_SE USA_R34_SW USA_R34_NW USA_R50_NE USA_R50_SE USA_R50_SW USA_R50_NW USA_R64_NE USA_R64_SE USA_R64_SW USA_R64_NW USA_POCI USA_ROCI USA_RMW USA_EYE TOKYO_LAT TOKYO_LON TOKYO_GRADE TOKYO_WIND TOKYO_PRES TOKYO_R50_DIR TOKYO_R50_LONG TOKYO_R50_SHORT TOKYO_R30_DIR TOKYO_R30_LONG TOKYO_R30_SHORT TOKYO_LAND CMA_LAT CMA_LON CMA_CAT CMA_WIND CMA_PRES HKO_LAT HKO_LON HKO_CAT HKO_WIND HKO_PRES NEWDELHI_LAT NEWDELHI_LON NEWDELHI_GRADE NEWDELHI_WIND NEWDELHI_PRES NEWDELHI_CI NEWDELHI_DP NEWDELHI_POCI REUNION_LAT REUNION_LON REUNION_TYPE REUNION_WIND REUNION_PRES REUNION_TNUM REUNION_CI REUNION_RMW REUNION_R34_NE REUNION_R34_SE REUNION_R34_SW REUNION_R34_NW REUNION_R50_NE REUNION_R50_SE REUNION_R50_SW REUNION_R50_NW REUNION_R64_NE REUNION_R64_SE REUNION_R64_SW REUNION_R64_NW BOM_LAT BOM_LON BOM_TYPE BOM_WIND BOM_PRES BOM_TNUM BOM_CI BOM_RMW BOM_R34_NE BOM_R34_SE BOM_R34_SW BOM_R34_NW BOM_R50_NE BOM_R50_SE BOM_R50_SW BOM_R50_NW BOM_R64_NE BOM_R64_SE BOM_R64_SW BOM_R64_NW BOM_ROCI BOM_POCI BOM_EYE BOM_POS_METHOD BOM_PRES_METHOD NADI_LAT NADI_LON NADI_CAT NADI_WIND NADI_PRES WELLINGTON_LAT WELLINGTON_LON WELLINGTON_WIND WELLINGTON_PRES DS824_LAT DS824_LON DS824_STAGE DS824_WIND DS824_PRES TD9636_LAT TD9636_LON TD9636_STAGE TD9636_WIND TD9636_PRES TD9635_LAT TD9635_LON TD9635_WIND TD9635_PRES TD9635_ROCI NEUMANN_LAT NEUMANN_LON NEUMANN_CLASS NEUMANN_WIND NEUMANN_PRES MLC_LAT MLC_LON MLC_CLASS MLC_WIND MLC_PRES USA_GUST BOM_GUST BOM_GUST_PER REUNION_GUST REUNION_GUST_PER USA_SEAHGT USA_SEARAD_NE USA_SEARAD_SE USA_SEARAD_SW USA_SEARAD_NW STORM_SPEED STORM_DIR
1968266N16253 1968 94 EP MM ORLA 1968-09-22 00:00:00 TS 15.8000 -106.800 25 hurdat_epa main 435 431 O________OO___ hurdat_epa EP151968 15.8000 -106.800 TD 25 -1 15.8000 -106.800 TC 25 15.8000 -106.800 1 5 293
1968266N16253 1968 94 EP MM ORLA 1968-09-22 03:00:00 TS 15.9010 -107.044 main 436 436 P________PP___ EP151968 15.9001 -107.045 TD 25 -1 15.9001 -107.045 TC 25 15.9048 -107.042 1 5 293
1968266N16253 1968 94 EP MM ORLA 1968-09-22 06:00:00 TS 16.0015 -107.299 25 hurdat_epa main 445 442 O________OP___ hurdat_epa EP151968 16.0000 -107.300 TD 25 -1 16.0000 -107.300 TC 25 16.0076 -107.297 1 6 291
1968266N16253 1968 94 EP MM ORLA 1968-09-22 09:00:00 TS 16.1013 -107.578 main 456 455 P________PP___ EP151968 16.0999 -107.578 TD 25 -1 16.0999 -107.578 TC 25 16.1066 -107.579 1 6 289
1968266N16253 1968 94 EP MM ORLA 1968-09-22 12:00:00 TS 16.2000 -107.900 25 hurdat_epa main 469 469 O________OO___ hurdat_epa EP151968 16.2000 -107.900 TD 25 -1 16.2000 -107.900 TC 25 16.2000 -107.900 1 7 286
1968266N16253 1968 94 EP MM ORLA 1968-09-22 15:00:00 TS 16.2975 -108.276 main 492 492 P________PP___ EP151968 16.3000 -108.278 TD 25 -1 16.3000 -108.278 TC 25 16.2877 -108.270 1 8 284
1968266N16253 1968 94 EP MM ORLA 1968-09-22 18:00:00 TS 16.3955 -108.697 25 hurdat_epa main 515 515 O________OP___ hurdat_epa EP151968 16.4000 -108.700 TD 25 -1 16.4000 -108.700 TC 25 16.3773 -108.683 1 8 283
1968266N16253 1968 94 EP MM ORLA 1968-09-22 21:00:00 TS 16.4896 -109.134 main 538 538 P________PP___ EP151968 16.4924 -109.135 TD 25 -1 16.4924 -109.135 TC 25 16.4783 -109.130 1 9 283
1968266N16253 1968 94 EP MM ORLA 1968-09-23 00:00:00 TS 16.6000 -109.600 25 hurdat_epa main 571 571 O________OO___ hurdat_epa EP151968 16.6000 -109.600 TD 25 -1 16.6000 -109.600 TC 25 16.6000 -109.600 2 9 285
1968266N16253 1968 94 EP MM ORLA 1968-09-23 03:00:00 TS 16.7394 -110.087 main 608 601 P________PP___ EP151968 16.7349 -110.093 TD 25 -1 16.7349 -110.093 TC 25 16.7572 -110.066 2 10 288
1968266N16253 1968 94 EP MM ORLA 1968-09-23 06:00:00 TS 16.9069 -110.591 25 hurdat_epa main 640 640 O________OP___ hurdat_epa EP151968 16.9000 -110.600 TD 25 -1 16.9000 -110.600 TC 25 16.9345 -110.555 2 10 291
1968266N16253 1968 94 EP MM ORLA 1968-09-23 09:00:00 TS 17.1038 -111.087 main 658 645 P________PP___ EP151968 17.0998 -111.093 TD 35 0 17.0998 -111.093 TC 35 17.1196 -111.066 2 10 292
1968266N16253 1968 94 EP MM ORLA 1968-09-23 12:00:00 TS 17.3000 -111.600 45 hurdat_epa main 648 642 O________OO___ hurdat_epa EP151968 17.3000 -111.600 TS 45 0 17.3000 -111.600 TC 45 17.3000 -111.600 2 11 290
1968266N16253 1968 94 EP MM ORLA 1968-09-23 15:00:00 TS 17.4606 -112.142 main 642 642 P________PP___ EP151968 17.4573 -112.135 TS 47 0 17.4573 -112.135 TC 47 17.4735 -112.170 2 11 286
1968266N16253 1968 94 EP MM ORLA 1968-09-23 18:00:00 TS 17.6075 -112.711 50 hurdat_epa main 656 655 O________OP___ hurdat_epa EP151968 17.6000 -112.700 TS 50 0 17.6000 -112.700 TC 50 17.6377 -112.757 2 12 285
1968266N16253 1968 94 EP MM ORLA 1968-09-23 21:00:00 TS 17.7686 -113.320 main 666 666 P________PP___ EP151968 17.7651 -113.315 TS 47 0 17.7651 -113.315 TC 47 17.7829 -113.341 2 12 284
1968266N16253 1968 94 EP MM ORLA 1968-09-24 00:00:00 TS 17.9000 -113.900 45 hurdat_epa main 691 691 O________OO___ hurdat_epa EP151968 17.9000 -113.900 TS 45 0 17.9000 -113.900 TC 45 17.9000 -113.900 2 10 281
1968266N16253 1968 94 EP MM ORLA 1968-09-24 03:00:00 TS 17.9641 -114.372 main 714 714 P________PP___ EP151968 17.9647 -114.365 TS 45 0 17.9647 -114.365 TC 45 17.9617 -114.401 2 9 277
1968266N16253 1968 94 EP MM ORLA 1968-09-24 06:00:00 TS 17.9998 -114.815 45 hurdat_epa main 741 741 O________OP___ hurdat_epa EP151968 18.0000 -114.800 TS 45 0 18.0000 -114.800 TC 45 17.9990 -114.874 2 9 275
1968266N16253 1968 94 EP MM ORLA 1968-09-24 09:00:00 TS 18.0353 -115.301 main 777 777 P________PP___ EP151968 18.0349 -115.293 TS 45 0 18.0349 -115.293 TC 45 18.0368 -115.335 2 9 276
1968266N16253 1968 94 EP MM ORLA 1968-09-24 12:00:00 TS 18.1000 -115.800 45 hurdat_epa main 807 807 O________OO___ hurdat_epa EP151968 18.1000 -115.800 TS 45 0 18.1000 -115.800 TC 45 18.1000 -115.800 2 10 282
1968266N16253 1968 94 EP MM ORLA 1968-09-24 15:00:00 TS 18.2370 -116.299 main 840 840 P________PP___ EP151968 18.2349 -116.300 TS 45 0 18.2349 -116.300 TC 45 18.2454 -116.296 2 10 288
1968266N16253 1968 94 EP MM ORLA 1968-09-24 18:00:00 TS 18.4029 -116.800 45 hurdat_epa main 855 852 O________OP___ hurdat_epa EP151968 18.4000 -116.800 TS 45 0 18.4000 -116.800 TC 45 18.4147 -116.799 2 10 289
1968266N16253 1968 94 EP MM ORLA 1968-09-24 21:00:00 TS 18.5733 -117.306 main 868 868 P________PP___ EP151968 18.5724 -117.307 TS 45 0 18.5724 -117.307 TC 45 18.5767 -117.302 2 10 287
1968266N16253 1968 94 EP MM ORLA 1968-09-25 00:00:00 TS 18.7000 -117.800 45 hurdat_epa main 892 892 O________OO___ hurdat_epa EP151968 18.7000 -117.800 TS 45 0 18.7000 -117.800 TC 45 18.7000 -117.800 2 9 280
1968266N16253 1968 94 EP MM ORLA 1968-09-25 03:00:00 TS 18.7272 -118.257 main 927 927 P________PP___ EP151968 18.7223 -118.250 TS 45 0 18.7223 -118.250 TC 45 18.7467 -118.283 2 9 271
1968266N16253 1968 94 EP MM ORLA 1968-09-25 06:00:00 TS 18.7104 -118.712 45 hurdat_epa main 956 956 O________OP___ hurdat_epa EP151968 18.7000 -118.700 TS 45 0 18.7000 -118.700 TC 45 18.7519 -118.758 2 9 269
1968266N16253 1968 94 EP MM ORLA 1968-09-25 09:00:00 TS 18.7062 -119.206 main 993 993 P________PP___ EP151968 18.7000 -119.200 TS 45 0 18.7000 -119.200 TC 45 18.7311 -119.229 2 9 269
1968266N16253 1968 94 EP MM ORLA 1968-09-25 12:00:00 TS 18.7000 -119.700 45 hurdat_epa main 1031 1031 O________OO___ hurdat_epa EP151968 18.7000 -119.700 TS 45 0 18.7000 -119.700 TC 45 18.7000 -119.700 2 9 270
1968266N16253 1968 94 EP MM ORLA 1968-09-25 15:00:00 TS 18.7039 -120.157 main 1070 1070 P________PP___ EP151968 18.7073 -120.150 TS 45 0 18.7073 -120.150 TC 45 18.6902 -120.187 2 9 270
1968266N16253 1968 94 EP MM ORLA 1968-09-25 18:00:00 TS 18.6945 -120.614 45 hurdat_epa main 1102 1102 O________OP___ hurdat_epa EP151968 18.7000 -120.600 TS 45 0 18.7000 -120.600 TC 45 18.6723 -120.672 2 9 267
1968266N16253 1968 94 EP MM ORLA 1968-09-25 21:00:00 TS 18.6547 -121.115 main 1143 1143 P________PP___ EP151968 18.6575 -121.108 TS 45 0 18.6575 -121.108 TC 45 18.6433 -121.146 2 9 264
1968266N16253 1968 94 EP MM ORLA 1968-09-26 00:00:00 TS 18.6000 -121.600 45 hurdat_epa main 1192 1192 O________OO___ hurdat_epa EP151968 18.6000 -121.600 TS 45 0 18.6000 -121.600 TC 45 18.6000 -121.600 2 9 263
1968266N16253 1968 94 EP MM ORLA 1968-09-26 03:00:00 TS 18.5544 -122.017 main 1226 1226 P________PP___ EP151968 18.5573 -122.015 TS 45 0 18.5573 -122.015 TC 45 18.5430 -122.026 2 8 262
1968266N16253 1968 94 EP MM ORLA 1968-09-26 06:00:00 TS 18.4944 -122.406 45 hurdat_epa main 1266 1266 O________OP___ hurdat_epa EP151968 18.5000 -122.400 TS 45 0 18.5000 -122.400 TC 45 18.4720 -122.430 2 8 259
1968266N16253 1968 94 EP MM ORLA 1968-09-26 09:00:00 TS 18.4039 -122.804 main 1306 1306 P________PP___ EP151968 18.4074 -122.800 TS 45 0 18.4074 -122.800 TC 45 18.3899 -122.819 2 8 256
1968266N16253 1968 94 EP MM ORLA 1968-09-26 12:00:00 TS 18.3000 -123.200 45 hurdat_epa main 1341 1341 O________OO___ hurdat_epa EP151968 18.3000 -123.200 TS 45 0 18.3000 -123.200 TC 45 18.3000 -123.200 2 8 255
1968266N16253 1968 94 EP MM ORLA 1968-09-26 15:00:00 TS 18.2029 -123.598 main 1378 1378 P________PP___ EP151968 18.2000 -123.607 TS 45 0 18.2000 -123.607 TC 45 18.2147 -123.562 2 8 255
1968266N16253 1968 94 EP MM ORLA 1968-09-26 18:00:00 TS 18.1043 -123.984 45 hurdat_epa main 1413 1413 O________OP___ hurdat_epa EP151968 18.1000 -124.000 TS 45 0 18.1000 -124.000 TC 45 18.1216 -123.920 2 7 254
1968266N16253 1968 94 EP MM ORLA 1968-09-26 21:00:00 TS 18.0094 -124.326 main 1441 1441 P________PP___ EP151968 18.0073 -124.335 TS 45 0 18.0073 -124.335 TC 45 18.0178 -124.293 2 7 253
1968266N16253 1968 94 EP MM ORLA 1968-09-27 00:00:00 TS 17.9000 -124.700 45 hurdat_epa main 1477 1477 O________OO___ hurdat_epa EP151968 17.9000 -124.700 TS 45 0 17.9000 -124.700 TC 45 17.9000 -124.700 2 9 253
1968266N16253 1968 94 EP MM ORLA 1968-09-27 03:00:00 TS 17.7582 -125.180 main 1520 1520 P________PP___ EP151968 17.7575 -125.178 TS 45 0 17.7575 -125.178 TC 45 17.7607 -125.189 2 10 253
1968266N16253 1968 94 EP MM ORLA 1968-09-27 06:00:00 TS 17.6016 -125.702 45 hurdat_epa main 1572 1572 O________OP___ hurdat_epa EP151968 17.6000 -125.700 TS 45 0 17.6000 -125.700 TC 45 17.6081 -125.708 2 10 252
1968266N16253 1968 94 EP MM ORLA 1968-09-27 09:00:00 TS 17.4443 -126.223 main 1625 1625 P________PP___ EP151968 17.4425 -126.223 TS 45 0 17.4425 -126.223 TC 45 17.4514 -126.223 2 10 252
1968266N16253 1968 94 EP MM ORLA 1968-09-27 12:00:00 TS 17.3000 -126.700 45 hurdat_epa main 1669 1669 O________OO___ hurdat_epa EP151968 17.3000 -126.700 TS 45 0 17.3000 -126.700 TC 45 17.3000 -126.700 2 9 253
1968266N16253 1968 94 EP MM ORLA 1968-09-27 15:00:00 TS 17.1933 -127.074 main 1707 1707 P________PP___ EP151968 17.1998 -127.072 TS 45 0 17.1998 -127.072 TC 45 17.1670 -127.080 2 7 253
1968266N16253 1968 94 EP MM ORLA 1968-09-27 18:00:00 TS 17.0883 -127.404 45 hurdat_epa main 1737 1737 O________OP___ hurdat_epa EP151968 17.1000 -127.400 TS 45 0 17.1000 -127.400 TC 45 17.0415 -127.422 2 7 249
1968266N16253 1968 94 EP MM ORLA 1968-09-27 21:00:00 TS 16.9500 -127.744 main 1776 1776 P________PP___ EP151968 16.9574 -127.742 TS 45 0 16.9574 -127.742 TC 45 16.9202 -127.752 2 7 247
1968266N16253 1968 94 EP MM ORLA 1968-09-28 00:00:00 TS 16.8000 -128.100 45 hurdat_epa main 1814 1814 O________OO___ hurdat_epa EP151968 16.8000 -128.100 TS 45 0 16.8000 -128.100 TC 45 16.8000 -128.100 2 8 247
1968266N16253 1968 94 EP MM ORLA 1968-09-28 03:00:00 TS 16.6473 -128.487 main 1860 1860 P________PP___ EP151968 16.6424 -128.485 TS 45 0 16.6424 -128.485 TC 45 16.6667 -128.495 2 8 249
1968266N16253 1968 94 EP MM ORLA 1968-09-28 06:00:00 TS 16.5069 -128.903 45 hurdat_epa main 1898 1898 O________OP___ hurdat_epa EP151968 16.5000 -128.900 TS 45 0 16.5000 -128.900 TC 45 16.5347 -128.913 2 9 253
1968266N16253 1968 94 EP MM ORLA 1968-09-28 09:00:00 TS 16.3960 -129.344 main 1937 1937 P________PP___ EP151968 16.3925 -129.342 TS 35 0 16.3925 -129.342 TC 35 16.4104 -129.348 2 9 256
1968266N16253 1968 94 EP MM ORLA 1968-09-28 12:00:00 TS 16.3000 -129.800 25 hurdat_epa main 1984 1984 O________OO___ hurdat_epa EP151968 16.3000 -129.800 TD 25 -1 16.3000 -129.800 TC 25 16.3000 -129.800 6 9 257
1968266N16253 1968 94 EP MM ORLA 1968-09-28 15:00:00 TS 16.2008 -130.245 main 2023 2023 P________PP___ EP151968 16.1924 -130.243 TD 25 -1 16.1924 -130.243 TC 25 16.2348 -130.256 6 9 258
1968266N16253 1968 94 EP MM ORLA 1968-09-28 18:00:00 TS 16.1159 -130.705 25 hurdat_epa main 2070 2070 O________OP___ hurdat_epa EP151968 16.1000 -130.700 TD 25 -1 16.1000 -130.700 TC 25 16.1797 -130.727 6 9 262
1968266N16253 1968 94 EP MM ORLA 1968-09-28 21:00:00 TS 16.0799 -131.196 main 2111 2111 P________PP___ EP151968 16.0724 -131.192 TD 25 -1 16.0724 -131.192 TC 25 16.1097 -131.209 6 10 263
1968266N16253 1968 94 EP MM ORLA 1968-09-29 00:00:00 TS 16.0000 -131.700 25 hurdat_epa main 2159 2159 O________OO___ hurdat_epa EP151968 16.0000 -131.700 TD 25 -1 16.0000 -131.700 TC 25 16.0000 -131.700 6 10 252
1968266N16253 1968 94 EP MM ORLA 1968-09-29 03:00:00 TS 15.7742 -132.200 main 2214 2214 P________PP___ EP151968 15.7724 -132.200 TD 25 -1 15.7724 -132.200 TC 25 15.7814 -132.198 6 11 243
1968266N16253 1968 94 EP MM ORLA 1968-09-29 06:00:00 TS 15.5055 -132.700 25 hurdat_epa main 2277 2277 O________OP___ hurdat_epa EP151968 15.5000 -132.700 TD 25 -1 15.5000 -132.700 TC 25 15.5273 -132.701 6 11 242
1968266N16253 1968 94 EP MM ORLA 1968-09-29 09:00:00 TS 15.2669 -133.207 main 2332 2292 P________PP___ EP151968 15.2624 -133.208 TD 25 -1 15.2624 -133.208 TC 25 15.2845 -133.204 6 10 247
1968266N16253 1968 94 EP MM ORLA 1968-09-29 12:00:00 TS 15.1000 -133.700 25 hurdat_epa main 2292 2250 O________OO___ hurdat_epa EP151968 15.1000 -133.700 TD 25 -1 15.1000 -133.700 TC 25 15.1000 -133.700 6 9 257
1968266N16253 1968 94 EP MM ORLA 1968-09-29 15:00:00 TS 15.0621 -134.161 main 2240 2199 P________PP___ EP151968 15.0698 -134.150 TD 25 -1 15.0698 -134.150 TC 25 15.0312 -134.206 6 9 269
1968266N16253 1968 94 EP MM ORLA 1968-09-29 18:00:00 TS 15.0850 -134.620 25 hurdat_epa main 2199 2147 O________OP___ hurdat_epa EP151968 15.1000 -134.600 TD 25 -1 15.1000 -134.600 TC 25 15.0250 -134.702 6 9 272
1968266N16253 1968 94 EP MM ORLA 1968-09-29 21:00:00 TS 15.0913 -135.126 main 2147 2095 P________PP___ EP151968 15.1001 -135.115 TD 25 -1 15.1001 -135.115 TC 25 15.0563 -135.172 6 9 271
1968266N16253 1968 94 EP MM ORLA 1968-09-30 00:00:00 TS 15.1000 -135.600 25 hurdat_epa main 2095 2054 O________OO___ hurdat_epa EP151968 15.1000 -135.600 TD 25 -1 15.1000 -135.600 TC 25 15.1000 -135.600 6 8 271
1968266N16253 1968 94 EP MM ORLA 1968-09-30 03:00:00 TS 15.1011 -135.979 main 2054 2023 P________PP___ EP151968 15.0924 -135.980 TD 25 -1 15.0924 -135.980 TC 25 15.1359 -135.976 6 7 271
1968266N16253 1968 94 EP MM ORLA 1968-09-30 06:00:00 TS 15.1125 -136.302 25 hurdat_epa main 2023 1993 O________OP___ hurdat_epa EP151968 15.1000 -136.300 TD 25 -1 15.1000 -136.300 TC 25 15.1625 -136.308 6 6 275
1968266N16253 1968 94 EP MM ORLA 1968-09-30 09:00:00 TS 15.1487 -136.604 main 1993 1958 P________PP___ EP151968 15.1401 -136.602 TD 25 -1 15.1401 -136.602 TC 25 15.1829 -136.611 6 6 279
1968266N16253 1968 94 EP MM ORLA 1968-09-30 12:00:00 TS 15.2000 -136.900 25 hurdat_epa main 1958 O________OO___ hurdat_epa EP151968 15.2000 -136.900 TD 25 -1 15.2000 -136.900 TC 25 15.2000 -136.900 6 6 280

About IBTrACS Database

This database is a web-friendly format of International Best Track Archive for Climate Stewardship (IBTrACS), a global best track data archive curated by NOAA dating back to 1842.

Updated: 2021-12-01